createdAt,value
2023-05-05T00:01:03.176Z,2.50
2023-05-05T00:03:30.492Z,1.90
2023-05-05T00:05:58.169Z,1.90
2023-05-05T00:08:25.431Z,1.85
2023-05-05T00:10:53.823Z,2.13
2023-05-05T00:13:21.588Z,1.90
2023-05-05T00:15:50.978Z,2.22
2023-05-05T00:18:18.823Z,2.40
2023-05-05T00:20:47.623Z,1.85
2023-05-05T00:23:20.024Z,2.00
2023-05-05T00:25:47.378Z,2.30
2023-05-05T00:28:14.577Z,2.15
2023-05-05T00:30:42.300Z,2.10
2023-05-05T00:33:11.262Z,3.00
2023-05-05T00:35:38.908Z,2.30
2023-05-05T00:38:07.341Z,1.90
2023-05-05T00:40:35.021Z,2.33
2023-05-05T00:43:02.905Z,2.65
2023-05-05T00:45:30.740Z,2.38
2023-05-05T00:48:00.168Z,2.40
2023-05-05T00:50:30.365Z,2.25
2023-05-05T00:53:04.008Z,2.00
2023-05-05T00:55:32.387Z,2.38
2023-05-05T00:58:01.641Z,2.50
2023-05-05T01:00:30.822Z,2.35
2023-05-05T01:02:59.298Z,2.58
2023-05-05T01:05:38.279Z,2.00
2023-05-05T01:08:16.790Z,2.55
2023-05-05T01:11:15.726Z,2.00
2023-05-05T01:13:52.397Z,1.90
2023-05-05T01:16:27.612Z,2.13
2023-05-05T01:19:26.501Z,2.30
2023-05-05T01:22:02.130Z,2.28
2023-05-05T01:24:56.586Z,1.92
2023-05-05T01:27:39.302Z,2.28
2023-05-05T01:30:37.832Z,2.05
2023-05-05T01:33:08.779Z,2.55
2023-05-05T01:35:47.438Z,1.83
2023-05-05T01:38:21.841Z,2.10
2023-05-05T01:40:52.623Z,2.58
2023-05-05T01:43:23.228Z,2.17
2023-05-05T01:45:53.919Z,2.17
2023-05-05T01:48:24.551Z,2.10
2023-05-05T01:50:53.520Z,2.10
2023-05-05T01:53:24.681Z,2.35
2023-05-05T01:55:54.645Z,2.30
2023-05-05T01:58:23.615Z,2.20
2023-05-05T02:00:52.273Z,2.50
2023-05-05T02:03:22.862Z,2.17
2023-05-05T02:05:52.675Z,2.25
2023-05-05T02:08:21.385Z,2.40
2023-05-05T02:10:51.520Z,2.40
2023-05-05T02:13:21.119Z,2.55
2023-05-05T02:15:50.081Z,2.63
2023-05-05T02:18:18.975Z,2.47
2023-05-05T02:20:47.524Z,2.67
2023-05-05T02:23:14.759Z,2.53
2023-05-05T02:25:50.715Z,2.70
2023-05-05T02:28:25.129Z,2.47
2023-05-05T02:30:58.450Z,2.92
2023-05-05T02:33:29.674Z,3.45
2023-05-05T02:35:58.859Z,3.35
2023-05-05T02:38:29.582Z,3.20
2023-05-05T02:41:03.229Z,3.58
2023-05-05T02:43:33.009Z,3.78
2023-05-05T02:46:01.692Z,3.10
2023-05-05T02:48:32.059Z,3.42
2023-05-05T02:51:02.428Z,3.00
2023-05-05T02:53:36.294Z,2.88
2023-05-05T02:56:25.689Z,2.88
2023-05-05T02:59:19.538Z,2.70
2023-05-05T03:02:14.275Z,2.88
2023-05-05T03:04:57.057Z,2.58
2023-05-05T03:07:31.105Z,2.80
2023-05-05T03:12:48.619Z,2.40
2023-05-05T03:18:11.801Z,2.78
2023-05-05T03:20:43.081Z,2.45
2023-05-05T03:23:15.702Z,2.50
2023-05-05T03:25:47.491Z,2.42
2023-05-05T03:28:29.893Z,2.55
2023-05-05T03:31:00.720Z,2.65
2023-05-05T03:33:28.361Z,3.63
2023-05-05T03:35:59.081Z,4.60
2023-05-05T03:38:26.326Z,5.45
2023-05-05T03:40:55.649Z,6.45
2023-05-05T03:43:26.545Z,7.27
2023-05-05T03:45:53.918Z,7.07
2023-05-05T03:48:21.415Z,9.02
2023-05-05T03:50:50.113Z,7.93
2023-05-05T03:53:19.566Z,8.18
2023-05-05T03:55:47.044Z,7.95
2023-05-05T03:58:14.076Z,7.80
2023-05-05T04:00:41.245Z,7.72
2023-05-05T04:03:08.860Z,9.45
2023-05-05T04:05:36.575Z,9.80
2023-05-05T04:08:04.875Z,9.68
2023-05-05T04:10:32.626Z,7.93
2023-05-05T04:13:00.916Z,6.72
2023-05-05T04:15:29.689Z,5.90
2023-05-05T04:17:56.952Z,5.45
2023-05-05T04:20:26.592Z,5.93
2023-05-05T04:22:55.017Z,5.43
2023-05-05T04:25:23.046Z,4.55
2023-05-05T04:27:50.533Z,4.10
2023-05-05T04:30:18.025Z,4.82
2023-05-05T04:32:45.821Z,3.30
2023-05-05T04:35:13.240Z,3.70
2023-05-05T04:37:43.677Z,3.70
2023-05-05T04:40:11.830Z,3.50
2023-05-05T04:42:42.716Z,3.63
2023-05-05T04:45:10.628Z,3.63
2023-05-05T04:47:39.081Z,3.10
2023-05-05T04:50:08.315Z,2.90
2023-05-05T04:52:35.995Z,3.30
2023-05-05T04:55:04.353Z,3.40
2023-05-05T04:57:32.254Z,3.00
2023-05-05T05:00:05.684Z,3.00
2023-05-05T05:02:33.357Z,2.75
2023-05-05T05:05:01.097Z,2.80
2023-05-05T05:07:33.969Z,3.15
2023-05-05T05:10:03.786Z,2.80
2023-05-05T05:12:38.415Z,2.40
2023-05-05T05:15:13.950Z,2.58
2023-05-05T05:17:50.025Z,2.47
2023-05-05T05:20:26.493Z,2.45
2023-05-05T05:23:03.050Z,2.10
2023-05-05T05:25:35.564Z,2.15
2023-05-05T05:28:09.487Z,3.28
2023-05-05T05:30:42.964Z,2.55
2023-05-05T05:33:11.958Z,2.53
2023-05-05T05:35:40.707Z,2.60
2023-05-05T05:38:09.293Z,2.50
2023-05-05T05:40:36.569Z,2.50
2023-05-05T05:43:04.938Z,2.60
2023-05-05T05:45:33.834Z,2.28
2023-05-05T05:48:04.029Z,2.55
2023-05-05T05:50:31.699Z,2.47
2023-05-05T05:52:59.635Z,2.72
2023-05-05T05:55:27.730Z,2.20
2023-05-05T05:57:55.460Z,2.95
2023-05-05T06:00:22.705Z,2.83
2023-05-05T06:02:57.133Z,2.67
2023-05-05T06:05:28.190Z,2.03
2023-05-05T06:07:55.438Z,2.22
2023-05-05T06:10:27.592Z,2.33
2023-05-05T06:13:01.046Z,2.58
2023-05-05T06:15:28.970Z,2.15
2023-05-05T06:17:56.810Z,2.05
2023-05-05T06:20:24.356Z,2.92
2023-05-05T06:22:51.556Z,2.67
2023-05-05T06:25:19.107Z,1.85
2023-05-05T06:27:46.625Z,3.30
2023-05-05T06:30:14.910Z,2.70
2023-05-05T06:32:42.484Z,2.28
2023-05-05T06:35:10.093Z,2.55
2023-05-05T06:37:37.274Z,2.53
2023-05-05T06:40:07.029Z,2.22
2023-05-05T06:42:34.412Z,2.70
2023-05-05T06:45:05.148Z,2.63
2023-05-05T06:47:32.399Z,2.75
2023-05-05T06:49:59.657Z,2.25
2023-05-05T06:52:27.058Z,2.50
2023-05-05T06:54:54.438Z,2.38
2023-05-05T06:57:21.660Z,2.85
2023-05-05T06:59:48.829Z,2.40
2023-05-05T07:02:15.922Z,2.17
2023-05-05T07:04:44.516Z,2.47
2023-05-05T07:07:11.929Z,2.40
2023-05-05T07:09:39.178Z,2.53
2023-05-05T07:12:06.707Z,2.65
2023-05-05T07:14:34.012Z,2.72
2023-05-05T07:17:01.139Z,2.72
2023-05-05T07:19:28.468Z,2.80
2023-05-05T07:21:57.202Z,2.95
2023-05-05T07:24:24.653Z,2.78
2023-05-05T07:26:52.005Z,2.42
2023-05-05T07:29:19.041Z,2.80
2023-05-05T07:31:46.661Z,2.90
2023-05-05T07:34:14.063Z,2.78
2023-05-05T07:36:42.032Z,2.60
2023-05-05T07:39:09.218Z,2.80
2023-05-05T07:41:36.504Z,2.75
2023-05-05T07:44:03.836Z,2.50
2023-05-05T07:46:31.012Z,2.60
2023-05-05T07:49:00.711Z,2.83
2023-05-05T07:51:27.890Z,2.83
2023-05-05T07:53:55.957Z,2.42
2023-05-05T07:56:23.187Z,2.85
2023-05-05T07:58:50.541Z,3.15
2023-05-05T08:01:17.972Z,2.60
2023-05-05T08:03:45.321Z,3.05
2023-05-05T08:06:22.091Z,2.50
2023-05-05T08:08:49.533Z,2.90
2023-05-05T08:11:17.284Z,2.05
2023-05-05T08:13:44.632Z,2.58
2023-05-05T08:16:13.213Z,2.78
2023-05-05T08:18:40.586Z,2.55
2023-05-05T08:21:09.030Z,2.70
2023-05-05T08:23:37.154Z,2.92
2023-05-05T08:26:06.958Z,3.10
2023-05-05T08:28:36.569Z,2.65
2023-05-05T08:31:08.707Z,2.42
2023-05-05T08:33:36.025Z,2.40
2023-05-05T08:36:03.354Z,3.00
2023-05-05T08:38:30.870Z,2.72
2023-05-05T08:40:58.369Z,2.65
2023-05-05T08:43:25.640Z,2.60
2023-05-05T08:45:56.440Z,2.83
2023-05-05T08:48:29.570Z,2.60
2023-05-05T08:51:00.848Z,3.10
2023-05-05T08:53:32.382Z,2.75
2023-05-05T08:56:01.311Z,2.55
2023-05-05T08:58:30.693Z,2.70
2023-05-05T09:00:58.180Z,2.55
2023-05-05T09:03:29.538Z,2.58
2023-05-05T09:06:12.791Z,2.55
2023-05-05T09:08:43.267Z,3.10
2023-05-05T09:11:10.643Z,3.08
2023-05-05T09:13:37.973Z,2.47
2023-05-05T09:16:05.947Z,2.60
2023-05-05T09:18:33.129Z,2.80
2023-05-05T09:21:00.592Z,2.75
2023-05-05T09:23:27.967Z,2.75
2023-05-05T09:26:09.792Z,2.50
2023-05-05T09:28:37.603Z,2.80
2023-05-05T09:31:16.456Z,2.50
2023-05-05T09:33:44.009Z,3.05
2023-05-05T09:36:12.352Z,2.83
2023-05-05T09:38:39.820Z,2.83
2023-05-05T09:41:07.057Z,2.75
2023-05-05T09:43:52.744Z,3.45
2023-05-05T09:46:20.513Z,3.08
2023-05-05T09:48:48.250Z,2.80
2023-05-05T09:51:15.901Z,3.42
2023-05-05T09:53:43.859Z,3.28
2023-05-05T09:56:11.266Z,3.08
2023-05-05T09:58:38.800Z,3.20
2023-05-05T10:01:06.098Z,3.55
2023-05-05T10:03:33.468Z,3.05
2023-05-05T10:06:02.349Z,3.35
2023-05-05T10:08:32.544Z,3.10
2023-05-05T10:11:05.135Z,3.25
2023-05-05T10:13:37.494Z,3.03
2023-05-05T10:16:07.967Z,2.55
2023-05-05T10:18:42.200Z,2.97
2023-05-05T10:23:48.031Z,2.65
2023-05-05T10:26:20.571Z,2.70
2023-05-05T10:28:51.792Z,2.58
2023-05-05T10:31:30.348Z,2.60
2023-05-05T10:34:03.544Z,2.60
2023-05-05T10:36:32.034Z,2.55
2023-05-05T10:39:01.216Z,2.53
2023-05-05T10:41:31.573Z,2.40
2023-05-05T10:44:01.397Z,2.70
2023-05-05T10:46:30.555Z,2.70
2023-05-05T10:49:15.880Z,2.20
2023-05-05T10:52:04.936Z,2.58
2023-05-05T10:55:02.969Z,2.55
2023-05-05T10:57:32.899Z,2.60
2023-05-05T11:00:00.339Z,2.72
2023-05-05T11:02:29.729Z,3.10
2023-05-05T11:05:09.498Z,2.95
2023-05-05T11:07:38.192Z,2.80
2023-05-05T11:10:12.847Z,2.60
2023-05-05T11:13:06.929Z,2.75
2023-05-05T11:15:37.925Z,3.00
2023-05-05T11:18:08.007Z,3.38
2023-05-05T11:20:40.254Z,2.97
2023-05-05T11:23:07.905Z,2.72
2023-05-05T11:25:37.086Z,3.00
2023-05-05T11:28:09.472Z,2.83
2023-05-05T11:30:57.821Z,2.67
2023-05-05T11:33:32.585Z,3.10
2023-05-05T11:36:05.104Z,2.75
2023-05-05T11:38:33.596Z,2.72
2023-05-05T11:41:16.960Z,2.80
2023-05-05T11:44:10.753Z,3.03
2023-05-05T11:46:44.622Z,3.00
2023-05-05T11:49:28.111Z,2.50
2023-05-05T11:52:05.759Z,2.35
2023-05-05T11:54:38.861Z,2.40
2023-05-05T11:57:10.512Z,2.60
2023-05-05T11:59:55.982Z,2.10
2023-05-05T12:02:34.011Z,2.90
2023-05-05T12:05:08.711Z,1.95
2023-05-05T12:07:36.559Z,2.17
2023-05-05T12:10:04.384Z,2.53
2023-05-05T12:12:42.700Z,2.08
2023-05-05T12:15:10.280Z,1.83
2023-05-05T12:17:46.231Z,2.00
2023-05-05T12:20:13.740Z,1.98
2023-05-05T12:22:41.329Z,2.20
2023-05-05T12:25:12.864Z,2.28
2023-05-05T12:28:12.955Z,2.58
2023-05-05T12:30:43.517Z,2.40
2023-05-05T12:33:10.978Z,3.10
2023-05-05T12:35:43.744Z,2.58
2023-05-05T12:38:11.596Z,2.80
2023-05-05T12:40:46.638Z,2.60
2023-05-05T12:43:31.168Z,2.75
2023-05-05T12:46:01.492Z,2.30
2023-05-05T12:48:29.014Z,2.30
2023-05-05T12:51:18.736Z,2.33
2023-05-05T12:54:06.210Z,2.10
2023-05-05T12:56:44.218Z,2.05
2023-05-05T12:59:32.851Z,1.77
2023-05-05T13:02:01.818Z,1.85
2023-05-05T13:04:29.301Z,2.03
2023-05-05T13:07:14.655Z,2.20
2023-05-05T13:09:42.684Z,2.13
2023-05-05T13:12:13.532Z,2.10
2023-05-05T13:14:42.113Z,1.90
2023-05-05T13:17:12.711Z,2.03
2023-05-05T13:19:46.700Z,2.25
2023-05-05T13:22:14.789Z,2.10
2023-05-05T13:24:51.756Z,1.80
2023-05-05T13:27:20.589Z,2.28
2023-05-05T13:29:47.889Z,1.73
2023-05-05T13:32:15.489Z,1.88
2023-05-05T13:34:44.307Z,1.63
2023-05-05T13:37:12.404Z,1.80
2023-05-05T13:39:39.997Z,1.90
2023-05-05T13:42:07.557Z,2.03
2023-05-05T13:44:35.546Z,1.90
2023-05-05T13:47:03.236Z,1.90
2023-05-05T13:49:31.728Z,1.90
2023-05-05T13:51:59.025Z,1.80
2023-05-05T13:54:27.089Z,2.05
2023-05-05T13:56:54.403Z,1.98
2023-05-05T13:59:22.224Z,2.50
2023-05-05T14:01:49.800Z,2.00
2023-05-05T14:04:17.143Z,2.10
2023-05-05T14:06:44.485Z,2.40
2023-05-05T14:09:11.656Z,2.25
2023-05-05T14:11:39.013Z,1.90
2023-05-05T14:14:06.306Z,2.30
2023-05-05T14:16:33.770Z,2.38
2023-05-05T14:19:01.754Z,2.10
2023-05-05T14:21:29.177Z,1.90
2023-05-05T14:23:56.934Z,2.03
2023-05-05T14:26:24.235Z,2.25
2023-05-05T14:28:51.707Z,1.80
2023-05-05T14:31:19.001Z,2.63
2023-05-05T14:33:46.642Z,2.10
2023-05-05T14:36:14.569Z,2.13
2023-05-05T14:38:45.397Z,2.95
2023-05-05T14:41:17.845Z,2.50
2023-05-05T14:43:54.135Z,2.65
2023-05-05T14:46:30.728Z,3.00
2023-05-05T14:49:18.732Z,2.60
2023-05-05T14:52:30.923Z,2.70
2023-05-05T14:54:55.376Z,3.10
2023-05-05T14:57:44.017Z,3.30
2023-05-05T15:00:25.360Z,3.13
2023-05-05T15:03:01.301Z,2.65
2023-05-05T15:05:46.201Z,2.50
2023-05-05T15:08:22.623Z,2.17
2023-05-05T15:10:55.137Z,2.28
2023-05-05T15:13:27.595Z,2.35
2023-05-05T15:16:07.912Z,2.63
2023-05-05T15:18:46.647Z,2.65
2023-05-05T15:21:26.058Z,2.42
2023-05-05T15:24:04.684Z,2.67
2023-05-05T15:26:34.837Z,2.55
2023-05-05T15:29:40.246Z,2.42
2023-05-05T15:32:48.314Z,2.15
2023-05-05T15:35:35.364Z,2.50
2023-05-05T15:41:10.356Z,2.33
2023-05-05T15:46:26.559Z,1.98
2023-05-05T15:48:57.520Z,2.45
2023-05-05T15:51:32.435Z,2.70
2023-05-05T15:54:06.352Z,3.08
2023-05-05T15:56:47.490Z,2.05
2023-05-05T15:59:19.189Z,2.65
2023-05-05T16:02:03.965Z,1.92
2023-05-05T16:04:41.601Z,2.00
2023-05-05T16:07:34.273Z,2.30
2023-05-05T16:10:06.669Z,2.25
2023-05-05T16:12:36.429Z,2.30
2023-05-05T16:15:25.890Z,2.58
2023-05-05T16:18:00.821Z,2.63
2023-05-05T16:20:30.856Z,2.15
2023-05-05T16:22:58.601Z,2.67
2023-05-05T16:25:25.792Z,2.08
2023-05-05T16:27:56.690Z,2.42
2023-05-05T16:30:24.731Z,2.45
2023-05-05T16:32:52.433Z,2.10
2023-05-05T16:35:20.720Z,2.00
2023-05-05T16:37:48.216Z,1.98
2023-05-05T16:40:15.814Z,1.67
2023-05-05T16:42:44.431Z,2.00
2023-05-05T16:45:12.268Z,1.88
2023-05-05T16:47:39.954Z,2.00
2023-05-05T16:50:08.216Z,1.88
2023-05-05T16:52:35.597Z,2.05
2023-05-05T16:55:05.086Z,2.10
2023-05-05T16:57:32.297Z,2.33
2023-05-05T16:59:59.901Z,2.88
2023-05-05T17:02:27.575Z,2.60
2023-05-05T17:04:54.679Z,2.90
2023-05-05T17:07:22.066Z,3.00
2023-05-05T17:09:49.397Z,2.75
2023-05-05T17:12:16.848Z,2.58
2023-05-05T17:14:45.704Z,2.78
2023-05-05T17:17:13.078Z,2.85
2023-05-05T17:19:40.851Z,2.72
2023-05-05T17:22:08.372Z,2.47
2023-05-05T17:24:35.997Z,2.40
2023-05-05T17:27:03.463Z,3.10
2023-05-05T17:29:30.834Z,2.28
2023-05-05T17:31:58.369Z,2.63
2023-05-05T17:34:25.876Z,2.05
2023-05-05T17:36:53.282Z,2.38
2023-05-05T17:39:20.765Z,2.10
2023-05-05T17:41:48.141Z,3.38
2023-05-05T17:44:15.729Z,3.08
2023-05-05T17:46:43.363Z,2.35
2023-05-05T17:49:10.876Z,3.15
2023-05-05T17:51:38.158Z,2.33
2023-05-05T17:54:05.732Z,2.85
2023-05-05T17:56:34.998Z,3.05
2023-05-05T17:59:02.498Z,2.70
2023-05-05T18:01:30.203Z,3.00
2023-05-05T18:03:57.682Z,3.28
2023-05-05T18:06:25.904Z,3.17
2023-05-05T18:08:53.208Z,3.20
2023-05-05T18:11:21.475Z,3.20
2023-05-05T18:13:48.963Z,2.70
2023-05-05T18:16:17.523Z,2.47
2023-05-05T18:18:44.841Z,3.05
2023-05-05T18:21:12.466Z,2.50
2023-05-05T18:23:40.396Z,2.60
2023-05-05T18:26:09.974Z,2.72
2023-05-05T18:28:37.852Z,2.92
2023-05-05T18:31:05.519Z,2.95
2023-05-05T18:33:32.897Z,3.22
2023-05-05T18:36:00.307Z,3.25
2023-05-05T18:38:27.927Z,3.40
2023-05-05T18:40:55.369Z,2.75
2023-05-05T18:43:22.791Z,2.90
2023-05-05T18:45:51.367Z,3.03
2023-05-05T18:48:20.949Z,3.10
2023-05-05T18:50:50.028Z,3.17
2023-05-05T18:53:17.968Z,3.70
2023-05-05T18:55:47.160Z,3.20
2023-05-05T18:58:14.354Z,3.05
2023-05-05T19:00:41.781Z,3.53
2023-05-05T19:03:09.226Z,3.10
2023-05-05T19:05:36.826Z,2.75
2023-05-05T19:08:04.082Z,3.97
2023-05-05T19:10:31.903Z,5.47
2023-05-05T19:12:59.268Z,3.78
2023-05-05T19:15:26.996Z,3.88
2023-05-05T19:17:54.569Z,3.83
2023-05-05T19:20:22.432Z,3.50
2023-05-05T19:22:49.772Z,3.35
2023-05-05T19:25:17.289Z,3.70
2023-05-05T19:27:44.665Z,3.38
2023-05-05T19:30:12.191Z,3.30
2023-05-05T19:32:39.518Z,3.40
2023-05-05T19:35:10.492Z,3.17
2023-05-05T19:37:38.041Z,3.30
2023-05-05T19:40:05.998Z,2.85
2023-05-05T19:42:34.091Z,3.33
2023-05-05T19:45:02.431Z,3.22
2023-05-05T19:47:32.664Z,3.67
2023-05-05T19:50:00.041Z,2.95
2023-05-05T19:52:27.616Z,3.05
2023-05-05T19:54:54.966Z,2.97
2023-05-05T19:57:22.561Z,3.13
2023-05-05T19:59:50.171Z,3.35
2023-05-05T20:02:17.893Z,3.00
2023-05-05T20:04:49.149Z,3.20
2023-05-05T20:07:18.036Z,3.30
2023-05-05T20:09:45.785Z,3.65
2023-05-05T20:12:13.568Z,2.97
2023-05-05T20:14:41.147Z,3.40
2023-05-05T20:17:08.902Z,3.05
2023-05-05T20:19:36.407Z,3.40
2023-05-05T20:22:03.601Z,3.50
2023-05-05T20:24:30.954Z,2.80
2023-05-05T20:26:58.625Z,3.10
2023-05-05T20:29:26.169Z,3.00
2023-05-05T20:31:55.988Z,3.30
2023-05-05T20:34:25.333Z,3.00
2023-05-05T20:36:53.160Z,3.47
2023-05-05T20:39:21.508Z,3.10
2023-05-05T20:41:49.118Z,2.97
2023-05-05T20:44:16.758Z,2.70
2023-05-05T20:46:44.729Z,2.90
2023-05-05T20:49:12.169Z,2.97
2023-05-05T20:51:39.683Z,2.80
2023-05-05T20:54:07.154Z,2.70
2023-05-05T20:56:34.639Z,3.15
2023-05-05T20:59:02.244Z,2.83
2023-05-05T21:01:29.715Z,2.47
2023-05-05T21:03:57.202Z,2.75
2023-05-05T21:06:24.706Z,3.05
2023-05-05T21:08:52.011Z,2.42
2023-05-05T21:11:19.466Z,2.67
2023-05-05T21:13:46.928Z,2.70
2023-05-05T21:16:14.257Z,3.28
2023-05-05T21:18:41.632Z,2.72
2023-05-05T21:21:08.998Z,2.63
2023-05-05T21:23:36.428Z,2.22
2023-05-05T21:26:03.940Z,1.80
2023-05-05T21:28:31.133Z,2.20
2023-05-05T21:31:20.684Z,2.70
2023-05-05T21:33:46.503Z,1.98
2023-05-05T21:36:17.859Z,2.50
2023-05-05T21:38:45.631Z,2.50
2023-05-05T21:41:13.161Z,2.50
2023-05-05T21:43:40.561Z,2.33
2023-05-05T21:46:07.850Z,2.13
2023-05-05T21:48:35.666Z,1.88
2023-05-05T21:51:03.764Z,1.80
2023-05-05T21:53:31.683Z,1.80
2023-05-05T21:55:59.279Z,2.55
2023-05-05T21:58:26.928Z,1.35
2023-05-05T22:00:54.350Z,1.90
2023-05-05T22:03:21.897Z,1.98
2023-05-05T22:05:49.436Z,1.92
2023-05-05T22:08:16.942Z,1.42
2023-05-05T22:10:44.606Z,1.85
2023-05-05T22:13:11.973Z,1.30
2023-05-05T22:15:46.130Z,1.60
2023-05-05T22:18:14.689Z,1.70
2023-05-05T22:20:42.387Z,1.63
2023-05-05T22:23:09.671Z,1.50
2023-05-05T22:25:36.809Z,1.58
2023-05-05T22:28:04.325Z,1.25
2023-05-05T22:30:31.680Z,1.55
2023-05-05T22:32:59.096Z,1.60
2023-05-05T22:35:28.745Z,1.90
2023-05-05T22:37:56.140Z,1.35
2023-05-05T22:40:23.602Z,1.65
2023-05-05T22:42:50.840Z,1.80
2023-05-05T22:45:18.198Z,1.52
2023-05-05T22:47:45.965Z,1.73
2023-05-05T22:50:13.579Z,1.70
2023-05-05T22:52:41.394Z,1.55
2023-05-05T22:55:09.175Z,1.70
2023-05-05T22:57:37.012Z,1.90
2023-05-05T23:00:08.902Z,1.70
2023-05-05T23:02:37.237Z,1.58
2023-05-05T23:05:05.346Z,1.67
2023-05-05T23:07:33.407Z,1.80
2023-05-05T23:10:00.947Z,1.50
2023-05-05T23:12:28.573Z,1.80
2023-05-05T23:14:56.197Z,1.58
2023-05-05T23:17:23.808Z,1.90
2023-05-05T23:19:51.148Z,1.77
2023-05-05T23:22:18.611Z,1.70
2023-05-05T23:24:45.888Z,1.90
2023-05-05T23:27:13.514Z,1.60
2023-05-05T23:29:40.737Z,1.90
2023-05-05T23:32:08.461Z,2.05
2023-05-05T23:34:35.973Z,2.33
2023-05-05T23:37:05.280Z,2.10
2023-05-05T23:39:34.708Z,2.00
2023-05-05T23:42:02.037Z,1.80
2023-05-05T23:44:30.316Z,2.22
2023-05-05T23:46:57.723Z,1.73
2023-05-05T23:49:26.534Z,1.73
2023-05-05T23:51:53.760Z,1.60
2023-05-05T23:54:21.119Z,1.73
2023-05-05T23:56:48.365Z,1.60
2023-05-05T23:59:15.666Z,1.80
